aviador You're here:

OMAA Decoded Metar

ABU DHABI in UNITED ARAB EMIRATES
Report Time2017-07-26 06:00:00
UTC Time2017-07-26 06:33:46
Flight Rules vfr VFR
Wind210° at 08 kt
W.Decomp.*RWY 13: 1.5 kt HW 7.9 kt RCW
W.Rank210° ranks 31
Current wind is above 210° avg. (5.2)
Visibility8000 m
Phenomena:N/A
Clouds:N/A
Expected CloudBase > 10,000 ft AGL from Temp-Dew spread
CeilingNone
Temp41°C (ISA +26)
Dew Point16°C (23% RH)
Heat Index42.0°C
AAT40.0°C
QNH0997 hPa
Density Alt3,802 ft
Elevation89 ft
Report Wrong Elevation
Raw Report
METAR OMAA 260600Z 21008KT 170V270 8000 NSC 41/16 Q0997 NOSIG=

Extra information for OMAA:More info

Metar Taf Metar & Taf Last 4 Metars F.Rules Stats Wind Profile Meteogram Temp Stats Airport Information Weather charts Add Link Nearby VenuesMetar ALERT Operation Metar Decoded Social comments